createdAt,value
2022-11-15T00:00:30.072Z,101638.53
2022-11-15T00:03:00.307Z,101636.81
2022-11-15T00:05:30.444Z,101636.72
2022-11-15T00:08:00.684Z,101631.41
2022-11-15T00:10:30.809Z,101629.72
2022-11-15T00:13:00.997Z,101621.16
2022-11-15T00:15:31.103Z,101615.06
2022-11-15T00:18:01.254Z,101614.19
2022-11-15T00:20:31.561Z,101608.09
2022-11-15T00:23:01.751Z,101623.69
2022-11-15T00:25:32.671Z,101604.63
2022-11-15T00:28:03.550Z,101614.09
2022-11-15T00:30:33.771Z,101596.66
2022-11-15T00:33:05.876Z,101595.72
2022-11-15T00:35:36.461Z,101604.41
2022-11-15T00:38:06.602Z,101604.28
2022-11-15T00:40:36.827Z,101592.19
2022-11-15T00:43:06.933Z,101606.88
2022-11-15T00:45:37.327Z,101598.25
2022-11-15T00:48:07.515Z,101596.56
2022-11-15T00:50:37.603Z,101588.66
2022-11-15T00:53:07.820Z,101586.91
2022-11-15T00:55:38.007Z,101586.00
2022-11-15T00:58:08.280Z,101583.44
2022-11-15T01:00:38.450Z,101574.75
2022-11-15T01:03:08.608Z,101579.94
2022-11-15T01:05:39.587Z,101567.00
2022-11-15T01:08:16.975Z,101559.16
2022-11-15T01:10:47.166Z,101567.88
2022-11-15T01:13:17.369Z,101562.66
2022-11-15T01:15:47.611Z,101564.41
2022-11-15T01:18:17.706Z,101558.28
2022-11-15T01:20:47.857Z,101553.06
2022-11-15T01:23:17.989Z,101549.53
2022-11-15T01:25:48.086Z,101546.03
2022-11-15T01:28:18.214Z,101549.50
2022-11-15T01:30:48.325Z,101552.19
2022-11-15T01:33:18.474Z,101545.25
2022-11-15T01:35:48.573Z,101540.03
2022-11-15T01:38:18.703Z,101537.41
2022-11-15T01:40:49.323Z,101530.50
2022-11-15T01:43:34.730Z,101525.34
2022-11-15T01:46:07.813Z,101522.75
2022-11-15T01:48:37.971Z,101514.06
2022-11-15T01:51:12.223Z,101518.38
2022-11-15T01:53:46.458Z,101499.28
2022-11-15T01:56:24.540Z,101501.94
2022-11-15T01:58:57.688Z,101501.88
2022-11-15T02:01:29.524Z,101491.38
2022-11-15T02:04:03.543Z,101493.16
2022-11-15T02:06:33.954Z,101485.34
2022-11-15T02:09:04.456Z,101492.38
2022-11-15T02:11:34.927Z,101487.16
2022-11-15T02:14:06.620Z,101484.56
2022-11-15T02:16:48.877Z,101482.84
2022-11-15T02:19:27.725Z,101478.47
2022-11-15T02:22:23.810Z,101476.69
2022-11-15T02:25:21.128Z,101474.97
2022-11-15T02:28:03.038Z,101472.41
2022-11-15T02:31:02.494Z,101472.38
2022-11-15T02:33:59.386Z,101468.09
2022-11-15T02:36:40.741Z,101462.88
2022-11-15T02:39:44.570Z,101466.34
2022-11-15T02:42:45.604Z,101459.38
2022-11-15T02:45:22.643Z,101456.75
2022-11-15T02:47:57.940Z,101447.13
2022-11-15T02:50:30.912Z,101435.94
2022-11-15T02:53:01.076Z,101448.03
2022-11-15T02:55:36.387Z,101434.16
2022-11-15T02:58:45.364Z,101436.72
2022-11-15T03:01:32.976Z,101425.53
2022-11-15T03:04:17.268Z,101434.25
2022-11-15T03:07:17.676Z,101416.94
2022-11-15T03:09:55.329Z,101404.78
2022-11-15T03:12:44.897Z,101405.69
2022-11-15T03:15:39.178Z,101396.94
2022-11-15T03:18:19.596Z,101407.28
2022-11-15T03:20:51.548Z,101415.94
2022-11-15T03:23:22.097Z,101412.50
2022-11-15T03:25:54.791Z,101414.28
2022-11-15T03:28:45.645Z,101405.66
2022-11-15T03:31:36.710Z,101399.59
2022-11-15T03:34:11.846Z,101406.59
2022-11-15T03:36:42.285Z,101403.97
2022-11-15T03:39:20.263Z,101399.63
2022-11-15T03:42:03.060Z,101398.75
2022-11-15T03:44:59.954Z,101403.16
2022-11-15T03:47:37.604Z,101397.13
2022-11-15T03:50:35.009Z,101400.63
2022-11-15T03:53:05.222Z,101392.00
2022-11-15T03:55:35.299Z,101398.06
2022-11-15T03:58:05.799Z,101397.19
2022-11-15T04:00:36.340Z,101383.28
2022-11-15T04:03:06.905Z,101383.28
2022-11-15T04:05:37.041Z,101384.16
2022-11-15T04:08:07.234Z,101378.09
2022-11-15T04:10:37.336Z,101382.44
2022-11-15T04:13:07.589Z,101378.06
2022-11-15T04:15:37.725Z,101372.88
2022-11-15T04:18:08.011Z,101380.66
2022-11-15T04:20:56.650Z,101363.28
2022-11-15T04:23:45.084Z,101365.00
2022-11-15T04:26:21.843Z,101355.41
2022-11-15T04:29:10.570Z,101364.91
2022-11-15T04:31:40.715Z,101368.41
2022-11-15T04:34:10.811Z,101371.91
2022-11-15T04:36:59.409Z,101373.66
2022-11-15T04:39:29.545Z,101371.84
2022-11-15T04:41:59.691Z,101374.44
2022-11-15T04:44:29.821Z,101375.25
2022-11-15T04:47:00.079Z,101376.13
2022-11-15T04:49:30.243Z,101379.59
2022-11-15T04:52:00.443Z,101363.16
2022-11-15T04:54:30.678Z,101376.19
2022-11-15T04:57:00.801Z,101378.81
2022-11-15T04:59:30.979Z,101374.41
2022-11-15T05:02:01.013Z,101380.50
2022-11-15T05:04:31.365Z,101374.44
2022-11-15T05:07:01.785Z,101367.44
2022-11-15T05:09:31.960Z,101374.38
2022-11-15T05:12:02.109Z,101370.06
2022-11-15T05:14:32.281Z,101361.31
2022-11-15T05:17:02.420Z,101347.41
2022-11-15T05:19:32.557Z,101361.31
2022-11-15T05:22:02.645Z,101358.75
2022-11-15T05:24:32.814Z,101351.84
2022-11-15T05:27:02.940Z,101357.03
2022-11-15T05:29:33.090Z,101358.75
2022-11-15T05:32:06.760Z,101362.25
2022-11-15T05:34:36.994Z,101353.56
2022-11-15T05:37:07.126Z,101355.28
2022-11-15T05:39:37.418Z,101352.69
2022-11-15T05:42:14.489Z,101356.13
2022-11-15T05:44:49.323Z,101355.31
2022-11-15T05:47:26.084Z,101359.66
2022-11-15T05:49:57.293Z,101353.59
2022-11-15T05:52:32.800Z,101351.88
2022-11-15T05:55:04.413Z,101344.91
2022-11-15T05:57:34.588Z,101348.38
2022-11-15T06:00:05.719Z,101349.25
2022-11-15T06:02:36.311Z,101355.34
2022-11-15T06:05:06.892Z,101355.31
2022-11-15T06:07:37.160Z,101361.38
2022-11-15T06:10:08.078Z,101358.72
2022-11-15T06:12:38.201Z,101363.03
2022-11-15T06:15:09.230Z,101363.06
2022-11-15T06:17:39.487Z,101354.34
2022-11-15T06:20:10.194Z,101354.34
2022-11-15T06:22:40.344Z,101363.06
2022-11-15T06:25:10.484Z,101358.72
2022-11-15T06:27:40.550Z,101354.38
2022-11-15T06:30:11.200Z,101369.09
2022-11-15T06:32:41.340Z,101373.47
2022-11-15T06:35:11.489Z,101371.72
2022-11-15T06:37:44.968Z,101369.06
2022-11-15T06:40:15.269Z,101376.84
2022-11-15T06:42:45.417Z,101366.41
2022-11-15T06:45:15.617Z,101375.13
2022-11-15T06:47:48.981Z,101381.19
2022-11-15T06:50:19.187Z,101375.16
2022-11-15T06:52:49.481Z,101374.28
2022-11-15T06:55:19.601Z,101383.84
2022-11-15T06:57:51.700Z,101374.34
2022-11-15T07:00:23.464Z,101361.28
2022-11-15T07:02:53.612Z,101370.00
2022-11-15T07:05:23.800Z,101376.00
2022-11-15T07:07:58.633Z,101375.13
2022-11-15T07:10:29.331Z,101372.53
2022-11-15T07:12:59.813Z,101356.06
2022-11-15T07:15:29.942Z,101365.66
2022-11-15T07:18:02.800Z,101376.13
2022-11-15T07:20:32.918Z,101377.81
2022-11-15T07:23:04.788Z,101370.03
2022-11-15T07:25:35.588Z,101362.25
2022-11-15T07:28:06.062Z,101365.78
2022-11-15T07:30:39.951Z,101353.53
2022-11-15T07:33:12.652Z,101367.44
2022-11-15T07:35:43.790Z,101371.78
2022-11-15T07:38:13.913Z,101367.44
2022-11-15T07:40:43.983Z,101375.22
2022-11-15T07:43:14.519Z,101370.84
2022-11-15T07:45:46.410Z,101369.19
2022-11-15T07:48:16.632Z,101369.19
2022-11-15T07:50:46.786Z,101374.38
2022-11-15T07:53:16.949Z,101372.69
2022-11-15T07:55:47.227Z,101372.72
2022-11-15T07:58:17.439Z,101378.78
2022-11-15T08:00:47.873Z,101374.38
2022-11-15T08:03:18.486Z,101363.03
2022-11-15T08:05:52.474Z,101366.50
2022-11-15T08:08:22.500Z,101357.75
2022-11-15T08:10:52.734Z,101342.13
2022-11-15T08:13:22.909Z,101363.84
2022-11-15T08:15:57.485Z,101362.09
2022-11-15T08:18:28.103Z,101353.47
2022-11-15T08:21:02.426Z,101363.94
2022-11-15T08:23:33.474Z,101356.16
2022-11-15T08:26:05.219Z,101357.94
2022-11-15T08:28:35.390Z,101360.53
2022-11-15T08:31:06.218Z,101348.41
2022-11-15T08:33:36.690Z,101358.84
2022-11-15T08:36:07.293Z,101346.69
2022-11-15T08:38:37.869Z,101353.66
2022-11-15T08:41:08.416Z,101349.34
2022-11-15T08:43:38.712Z,101345.91
2022-11-15T08:46:14.133Z,101360.66
2022-11-15T08:48:44.636Z,101346.78
2022-11-15T08:51:15.915Z,101349.41
2022-11-15T08:53:46.381Z,101339.00
2022-11-15T08:56:17.513Z,101346.81
2022-11-15T08:58:48.507Z,101316.41
2022-11-15T09:01:22.905Z,101343.38
2022-11-15T09:03:53.851Z,101347.72
2022-11-15T09:06:24.467Z,101348.63
2022-11-15T09:08:54.861Z,101350.34
2022-11-15T09:11:25.169Z,101347.72
2022-11-15T09:13:55.651Z,101350.31
2022-11-15T09:16:25.711Z,101357.22
2022-11-15T09:18:56.004Z,101343.34
2022-11-15T09:21:26.068Z,101345.13
2022-11-15T09:23:56.985Z,101340.78
2022-11-15T09:26:27.221Z,101354.66
2022-11-15T09:28:58.264Z,101347.75
2022-11-15T09:31:28.601Z,101344.25
2022-11-15T09:33:58.771Z,101341.69
2022-11-15T09:36:29.015Z,101326.06
2022-11-15T09:38:59.777Z,101334.75
2022-11-15T09:41:58.621Z,101327.84
2022-11-15T09:44:47.227Z,101338.25
2022-11-15T09:47:32.642Z,101338.25
2022-11-15T09:50:11.456Z,101334.81
2022-11-15T09:52:46.930Z,101340.00
2022-11-15T09:55:22.529Z,101341.75
2022-11-15T09:58:18.706Z,101335.66
2022-11-15T10:00:53.952Z,101339.09
2022-11-15T10:03:37.550Z,101339.13
2022-11-15T10:06:11.036Z,101320.03
2022-11-15T10:09:03.112Z,101328.72
2022-11-15T10:11:38.284Z,101322.63
2022-11-15T10:14:22.680Z,101318.28
2022-11-15T10:17:26.770Z,101325.28
2022-11-15T10:20:06.023Z,101322.72
2022-11-15T10:22:42.429Z,101319.25
2022-11-15T10:25:19.924Z,101315.78
2022-11-15T10:28:00.818Z,101309.69
2022-11-15T10:30:42.493Z,101327.09
2022-11-15T10:33:20.476Z,101320.03
2022-11-15T10:36:10.529Z,101327.81
2022-11-15T10:38:49.564Z,101331.28
2022-11-15T10:41:28.364Z,101326.03
2022-11-15T10:44:13.341Z,101316.47
2022-11-15T10:46:48.064Z,101318.28
2022-11-15T10:49:27.079Z,101316.59
2022-11-15T10:51:59.222Z,101318.41
2022-11-15T10:54:43.580Z,101313.19
2022-11-15T10:57:17.132Z,101306.28
2022-11-15T10:59:50.819Z,101307.16
2022-11-15T11:02:38.267Z,101308.88
2022-11-15T11:05:29.324Z,101303.56
2022-11-15T11:08:02.712Z,101312.25
2022-11-15T11:10:51.919Z,101286.22
2022-11-15T11:13:29.312Z,101308.81
2022-11-15T11:16:15.630Z,101301.88
2022-11-15T11:18:48.507Z,101297.59
2022-11-15T11:21:54.860Z,101292.31
2022-11-15T11:24:37.805Z,101305.41
2022-11-15T11:27:20.079Z,101301.09
2022-11-15T11:30:01.326Z,101291.56
2022-11-15T11:32:34.405Z,101291.56
2022-11-15T11:35:32.268Z,101289.81
2022-11-15T11:38:16.526Z,101286.28
2022-11-15T11:41:08.031Z,101283.69
2022-11-15T11:43:58.572Z,101275.88
2022-11-15T11:46:39.011Z,101280.22
2022-11-15T11:49:19.966Z,101274.97
2022-11-15T11:52:18.538Z,101278.53
2022-11-15T11:54:56.882Z,101270.72
2022-11-15T11:57:34.727Z,101275.00
2022-11-15T12:00:19.929Z,101266.31
2022-11-15T12:03:08.732Z,101268.13
2022-11-15T12:05:46.157Z,101271.63
2022-11-15T12:08:41.293Z,101269.03
2022-11-15T12:11:25.188Z,101272.59
2022-11-15T12:14:02.575Z,101266.50
2022-11-15T12:16:34.545Z,101265.66
2022-11-15T12:19:06.287Z,101263.03
2022-11-15T12:21:42.426Z,101256.13
2022-11-15T12:24:29.842Z,101251.78
2022-11-15T12:27:26.493Z,101257.91
2022-11-15T12:30:04.474Z,101257.00
2022-11-15T12:32:50.262Z,101252.66
2022-11-15T12:35:36.035Z,101247.44
2022-11-15T12:38:10.487Z,101254.41
2022-11-15T12:41:18.124Z,101261.25
2022-11-15T12:43:50.197Z,101252.44
2022-11-15T12:46:29.538Z,101247.22
2022-11-15T12:49:10.610Z,101251.97
2022-11-15T12:51:43.965Z,101248.56
2022-11-15T12:54:23.251Z,101247.72
2022-11-15T12:57:05.338Z,101244.25
2022-11-15T12:59:56.120Z,101249.44
2022-11-15T13:02:35.120Z,101246.84
2022-11-15T13:05:20.598Z,101244.25
2022-11-15T13:07:50.848Z,101251.19
2022-11-15T13:10:33.825Z,101249.44
2022-11-15T13:13:10.558Z,101252.81
2022-11-15T13:15:57.657Z,101256.31
2022-11-15T13:18:32.900Z,101250.25
2022-11-15T13:21:25.695Z,101250.25
2022-11-15T13:23:56.662Z,101244.13
2022-11-15T13:26:27.769Z,101243.25
2022-11-15T13:28:58.081Z,101235.44
2022-11-15T13:31:35.861Z,101233.72
2022-11-15T13:34:50.530Z,101226.81
2022-11-15T13:37:21.423Z,101221.63
2022-11-15T13:39:51.750Z,101219.91
2022-11-15T13:42:22.497Z,101221.63
2022-11-15T13:45:01.985Z,101213.81
2022-11-15T13:47:33.064Z,101206.84
2022-11-15T13:50:09.648Z,101206.84
2022-11-15T13:52:45.341Z,101217.28
2022-11-15T13:55:20.038Z,101222.41
2022-11-15T13:58:00.102Z,101212.59
2022-11-15T14:00:43.378Z,101209.69
2022-11-15T14:03:23.598Z,101205.22
2022-11-15T14:06:16.047Z,101196.53
2022-11-15T14:09:12.675Z,101209.44
2022-11-15T14:11:56.860Z,101178.97
2022-11-15T14:14:28.945Z,101192.91
2022-11-15T14:17:00.769Z,101213.13
2022-11-15T14:19:32.578Z,101200.34
2022-11-15T14:22:29.494Z,101197.00
2022-11-15T14:25:22.638Z,101188.44
2022-11-15T14:28:14.234Z,101161.56
2022-11-15T14:30:49.078Z,101182.41
2022-11-15T14:33:35.368Z,101184.19
2022-11-15T14:36:16.155Z,101190.28
2022-11-15T14:38:47.987Z,101183.34
2022-11-15T14:41:24.131Z,101185.09
2022-11-15T14:43:54.662Z,101179.88
2022-11-15T14:46:24.822Z,101180.75
2022-11-15T14:48:55.037Z,101179.00
2022-11-15T14:51:25.373Z,101191.16
2022-11-15T14:53:56.471Z,101191.16
2022-11-15T14:56:26.608Z,101187.69
2022-11-15T14:58:56.695Z,101185.06
2022-11-15T15:01:27.427Z,101185.94
2022-11-15T15:03:59.700Z,101192.03
2022-11-15T15:06:31.787Z,101198.09
2022-11-15T15:09:01.953Z,101192.03
2022-11-15T15:11:32.734Z,101184.22
2022-11-15T15:14:02.841Z,101181.63
2022-11-15T15:16:33.115Z,101170.34
2022-11-15T15:19:03.949Z,101177.28
2022-11-15T15:21:37.448Z,101179.03
2022-11-15T15:24:13.362Z,101179.88
2022-11-15T15:26:44.605Z,101180.75
2022-11-15T15:29:14.814Z,101172.03
2022-11-15T15:31:44.986Z,101181.63
2022-11-15T15:34:16.774Z,101178.09
2022-11-15T15:36:47.217Z,101181.59
2022-11-15T15:39:17.306Z,101175.50
2022-11-15T15:41:47.454Z,101172.06
2022-11-15T15:44:17.596Z,101172.94
2022-11-15T15:46:47.740Z,101154.66
2022-11-15T15:49:17.918Z,101169.44
2022-11-15T15:51:48.039Z,101167.69
2022-11-15T15:54:18.227Z,101158.13
2022-11-15T15:56:52.171Z,101172.03
2022-11-15T15:59:25.217Z,101174.66
2022-11-15T16:01:55.416Z,101171.16
2022-11-15T16:04:27.040Z,101164.19
2022-11-15T16:07:01.910Z,101167.66
2022-11-15T16:09:50.587Z,101175.47
2022-11-15T16:12:20.709Z,101184.13
2022-11-15T16:14:50.900Z,101186.72
2022-11-15T16:17:32.846Z,101191.06
2022-11-15T16:20:07.483Z,101189.31
2022-11-15T16:22:37.615Z,101162.44
2022-11-15T16:25:08.037Z,101151.16
2022-11-15T16:27:39.735Z,101168.53
2022-11-15T16:30:15.683Z,101162.47
2022-11-15T16:32:46.482Z,101168.53
2022-11-15T16:35:18.072Z,101165.06
2022-11-15T16:37:48.560Z,101158.09
2022-11-15T16:40:28.669Z,101172.00
2022-11-15T16:43:00.110Z,101164.19
2022-11-15T16:45:32.058Z,101156.38
2022-11-15T16:48:02.555Z,101152.88
2022-11-15T16:50:41.610Z,101160.72
2022-11-15T16:53:12.294Z,101158.09
2022-11-15T16:55:42.544Z,101152.88
2022-11-15T16:58:12.979Z,101158.09
2022-11-15T17:00:43.133Z,101148.56
2022-11-15T17:03:13.278Z,101149.44
2022-11-15T17:05:43.377Z,101149.44
2022-11-15T17:08:13.619Z,101159.84
2022-11-15T17:10:44.351Z,101168.50
2022-11-15T17:13:14.985Z,101160.69
2022-11-15T17:15:45.203Z,101159.81
2022-11-15T17:18:15.880Z,101164.19
2022-11-15T17:20:46.129Z,101150.28
2022-11-15T17:23:16.372Z,101156.34
2022-11-15T17:25:46.518Z,101158.94
2022-11-15T17:28:16.699Z,101146.75
2022-11-15T17:30:46.842Z,101158.00
2022-11-15T17:33:17.037Z,101164.03
2022-11-15T17:35:47.086Z,101168.31
2022-11-15T17:38:17.280Z,101185.66
2022-11-15T17:40:47.462Z,101181.31
2022-11-15T17:43:17.591Z,101188.31
2022-11-15T17:45:47.777Z,101185.69
2022-11-15T17:48:17.932Z,101187.41
2022-11-15T17:50:59.030Z,101182.19
2022-11-15T17:53:33.686Z,101188.31
2022-11-15T17:56:04.463Z,101189.19
2022-11-15T17:58:35.369Z,101187.44
2022-11-15T18:01:14.552Z,101173.56
2022-11-15T18:03:45.127Z,101170.94
2022-11-15T18:06:16.778Z,101191.75
2022-11-15T18:08:49.722Z,101178.72
2022-11-15T18:11:22.719Z,101189.13
2022-11-15T18:14:01.594Z,101176.06
2022-11-15T18:16:34.146Z,101186.47
2022-11-15T18:19:13.417Z,101182.94
2022-11-15T18:21:57.716Z,101193.34
2022-11-15T18:24:35.918Z,101190.78
2022-11-15T18:27:06.986Z,101182.06
2022-11-15T18:29:38.194Z,101169.97
2022-11-15T18:32:11.785Z,101175.13
2022-11-15T18:34:42.036Z,101150.75
2022-11-15T18:37:12.086Z,101186.44
2022-11-15T18:39:44.192Z,101183.00
2022-11-15T18:42:14.683Z,101179.56
2022-11-15T18:44:45.189Z,101178.69
2022-11-15T18:47:15.405Z,101156.97
2022-11-15T18:49:45.680Z,101172.59
2022-11-15T18:52:15.684Z,101176.97
2022-11-15T18:54:45.843Z,101166.53
2022-11-15T18:57:15.916Z,101163.13
2022-11-15T18:59:46.081Z,101168.34
2022-11-15T19:02:16.145Z,101159.63
2022-11-15T19:04:46.331Z,101163.13
2022-11-15T19:07:16.441Z,101164.88
2022-11-15T19:09:46.877Z,101161.41
2022-11-15T19:12:16.941Z,101155.31
2022-11-15T19:14:47.092Z,101163.16
2022-11-15T19:17:17.207Z,101158.81
2022-11-15T19:19:47.339Z,101165.78
2022-11-15T19:22:17.451Z,101134.53
2022-11-15T19:24:47.628Z,101157.97
2022-11-15T19:27:17.814Z,101154.50
2022-11-15T19:29:47.904Z,101165.78
2022-11-15T19:32:17.998Z,101163.16
2022-11-15T19:34:48.210Z,101165.75
2022-11-15T19:37:18.333Z,101168.34
2022-11-15T19:39:48.481Z,101175.28
2022-11-15T19:42:18.709Z,101154.47
2022-11-15T19:44:48.880Z,101157.94
2022-11-15T19:47:19.082Z,101134.53
2022-11-15T19:49:49.176Z,101168.38
2022-11-15T19:52:21.002Z,101064.19
2022-11-15T19:54:51.462Z,101164.03
2022-11-15T19:57:21.593Z,101157.97
2022-11-15T19:59:55.420Z,101147.56
2022-11-15T20:02:26.611Z,101121.50
2022-11-15T20:04:56.758Z,101113.69
2022-11-15T20:07:26.998Z,101156.25
2022-11-15T20:09:57.210Z,101154.50
2022-11-15T20:12:28.003Z,101160.59
2022-11-15T20:15:01.178Z,101149.34
2022-11-15T20:17:31.415Z,101138.91
2022-11-15T20:20:02.025Z,101131.97
2022-11-15T20:22:32.345Z,101126.78
2022-11-15T20:25:02.628Z,101111.19
2022-11-15T20:27:32.815Z,101122.50
2022-11-15T20:30:04.234Z,101119.88
2022-11-15T20:32:34.244Z,101119.88
2022-11-15T20:35:04.690Z,101117.28
2022-11-15T20:37:35.545Z,101119.88
2022-11-15T20:40:06.566Z,101125.94
2022-11-15T20:42:36.822Z,101122.47
2022-11-15T20:45:07.713Z,101114.66
2022-11-15T20:47:37.781Z,101116.38
2022-11-15T20:50:35.317Z,101124.22
2022-11-15T20:52:59.083Z,101125.88
2022-11-15T20:55:29.259Z,101129.38
2022-11-15T20:57:59.528Z,101133.72
2022-11-15T21:00:29.765Z,101123.28
2022-11-15T21:03:00.170Z,101144.97
2022-11-15T21:05:30.420Z,101144.03
2022-11-15T21:08:00.700Z,101139.69
2022-11-15T21:10:49.724Z,101142.31
2022-11-15T21:13:20.238Z,101133.66
2022-11-15T21:15:50.535Z,101136.31
2022-11-15T21:18:20.717Z,101110.25
2022-11-15T21:20:52.260Z,101119.84
2022-11-15T21:23:22.517Z,101130.25
2022-11-15T21:25:53.037Z,101132.00
2022-11-15T21:28:24.235Z,101117.25
2022-11-15T21:30:57.125Z,101115.47
2022-11-15T21:33:28.827Z,101118.97
2022-11-15T21:35:59.212Z,101125.91
2022-11-15T21:38:29.722Z,101110.31
2022-11-15T21:41:04.906Z,101120.75
2022-11-15T21:43:35.990Z,101116.38
2022-11-15T21:46:07.367Z,101117.28
2022-11-15T21:48:40.350Z,101101.66
2022-11-15T21:51:13.083Z,101118.13
2022-11-15T21:53:43.188Z,101126.78
2022-11-15T21:56:13.691Z,101119.88
2022-11-15T21:58:43.781Z,101116.41
2022-11-15T22:01:32.769Z,101103.38
2022-11-15T22:04:03.263Z,101100.78
2022-11-15T22:06:35.150Z,101111.19
2022-11-15T22:09:06.550Z,101112.06
2022-11-15T22:11:37.310Z,101117.28
2022-11-15T22:14:07.826Z,101114.66
2022-11-15T22:16:38.318Z,101106.00
2022-11-15T22:19:08.653Z,101099.94
2022-11-15T22:21:40.826Z,101088.66
2022-11-15T22:24:11.158Z,101047.88
2022-11-15T22:26:43.946Z,101080.00
2022-11-15T22:29:14.353Z,101084.31
2022-11-15T22:31:44.705Z,101093.84
2022-11-15T22:34:16.074Z,101107.72
2022-11-15T22:37:18.204Z,101104.22
2022-11-15T22:39:37.031Z,101106.78
2022-11-15T22:42:07.543Z,101035.56
2022-11-15T22:44:38.056Z,101102.44
2022-11-15T22:47:08.399Z,101074.69
2022-11-15T22:49:38.924Z,101101.53
2022-11-15T22:52:09.383Z,101088.56
2022-11-15T22:54:40.256Z,101086.00
2022-11-15T22:57:13.888Z,101073.03
2022-11-15T22:59:44.936Z,101075.59
2022-11-15T23:02:15.434Z,101079.06
2022-11-15T23:04:46.668Z,101082.56
2022-11-15T23:07:17.389Z,101088.66
2022-11-15T23:09:52.252Z,101079.06
2022-11-15T23:12:41.916Z,101055.66
2022-11-15T23:15:13.038Z,101090.38
2022-11-15T23:17:45.019Z,101079.06
2022-11-15T23:20:41.987Z,101086.00
2022-11-15T23:23:13.192Z,101084.31
2022-11-15T23:25:44.428Z,101077.38
2022-11-15T23:28:15.053Z,101076.50
2022-11-15T23:31:04.175Z,101084.31
2022-11-15T23:33:52.939Z,101079.13
2022-11-15T23:36:23.858Z,101075.66
2022-11-15T23:38:54.534Z,101074.78
2022-11-15T23:41:25.318Z,101080.00
2022-11-15T23:43:55.833Z,101064.41
2022-11-15T23:46:26.161Z,101063.53
2022-11-15T23:48:56.764Z,101075.66
2022-11-15T23:51:27.073Z,101078.28
2022-11-15T23:53:57.688Z,101076.53
2022-11-15T23:56:28.259Z,101081.75
2022-11-15T23:58:58.909Z,101076.50
